Time;durP1;ratioP1;P1;durP2;ratioP2;P2;SDS_P1;SDS_P2;PMS_P1;PMS_P2;Temp;Humidity;BMP_temperature;BMP_pressure;BME280_temperature;BME280_humidity;BME280_pressure;Samples;Min_cycle;Max_cycle;Signal;HPM_P1;HPM_P2
2021/08/13 00:04:05;;;;;;;8.53;5.67;;;;;;;19.32;62.49;101297.38;5005608;59;21183;-80
2021/08/13 00:09:12;;;;;;;10.32;4.83;;;;;;;19.24;62.46;101293.31;5005428;59;22184;-80
2021/08/13 00:14:18;;;;;;;11.48;5.10;;;;;;;19.16;62.38;101291.39;5005648;59;21173;-81
2021/08/13 00:19:24;;;;;;;6.33;4.12;;;;;;;19.14;62.35;101294.72;5005639;59;21162;-81
2021/08/13 00:24:30;;;;;;;7.83;4.55;;;;;;;19.10;62.46;101294.68;5005491;58;21598;-80
2021/08/13 00:29:35;;;;;;;4.65;4.08;;;;;;;19.02;62.40;101301.33;5005375;58;21658;-80
2021/08/13 00:34:42;;;;;;;4.20;3.87;;;;;;;18.99;62.93;101301.63;5008117;59;21102;-81
2021/08/13 00:39:47;;;;;;;5.00;4.03;;;;;;;18.94;62.90;101290.02;5009463;59;21653;-81
2021/08/13 00:44:53;;;;;;;5.20;3.98;;;;;;;18.87;62.87;101295.67;5009566;59;21236;-81
2021/08/13 00:50:00;;;;;;;4.33;3.80;;;;;;;18.83;62.98;101295.63;5009507;59;21526;-82
2021/08/13 00:55:13;;;;;;;9.40;3.67;;;;;;;18.82;63.15;101301.98;5009077;58;21225;-80
2021/08/13 01:00:21;;;;;;;6.58;4.08;;;;;;;18.75;63.17;101290.70;5008930;58;21169;-81
2021/08/13 01:05:28;;;;;;;7.70;3.80;;;;;;;18.65;63.39;101287.23;5009048;59;21222;-81
2021/08/13 01:10:43;;;;;;;4.37;3.67;;;;;;;18.55;63.73;101288.63;5009234;59;21234;-80
2021/08/13 01:15:56;;;;;;;4.22;3.83;;;;;;;18.43;64.02;101287.16;5009233;59;21701;-80
2021/08/13 01:21:24;;;;;;;4.70;4.10;;;;;;;18.35;64.33;101290.58;5009316;59;21212;-81
2021/08/13 01:26:34;;;;;;;6.35;3.80;;;;;;;18.28;64.49;101290.85;5009369;58;21559;-81
2021/08/13 01:31:51;;;;;;;6.10;3.67;;;;;;;18.27;64.82;101290.50;5007733;59;21121;-82
2021/08/13 01:37:00;;;;;;;6.55;3.80;;;;;;;18.26;64.95;101296.35;5004028;59;21197;-81
2021/08/13 01:42:08;;;;;;;5.60;4.30;;;;;;;18.24;64.90;101293.47;5005192;58;21201;-81
2021/08/13 01:47:16;;;;;;;4.67;4.20;;;;;;;18.17;65.03;101297.76;5005364;59;21216;-80
2021/08/13 01:52:25;;;;;;;8.00;4.45;;;;;;;18.07;65.03;101296.94;5005071;58;21524;-80
2021/08/13 01:57:32;;;;;;;6.07;4.03;;;;;;;17.99;65.09;101292.84;5005263;59;22084;-81
2021/08/13 02:02:39;;;;;;;14.73;5.33;;;;;;;17.94;65.33;101301.30;5005257;59;21198;-80
2021/08/13 02:07:46;;;;;;;4.37;3.83;;;;;;;17.87;65.41;101294.34;5005227;59;21254;-82
2021/08/13 02:12:52;;;;;;;5.78;4.37;;;;;;;17.78;65.57;101295.23;5003920;59;21241;-80
2021/08/13 02:18:02;;;;;;;6.43;4.40;;;;;;;17.68;65.73;101298.95;5005478;58;21528;-80
2021/08/13 02:23:11;;;;;;;10.10;4.13;;;;;;;17.59;65.98;101301.45;5005211;58;21177;-80
2021/08/13 02:28:17;;;;;;;5.97;4.40;;;;;;;17.46;65.87;101296.92;5005240;59;21174;-81
2021/08/13 02:33:23;;;;;;;6.43;4.50;;;;;;;17.38;66.40;101294.14;4998257;59;21165;-81
2021/08/13 02:38:33;;;;;;;7.33;4.30;;;;;;;17.38;66.38;101293.30;5009103;59;21210;-80
2021/08/13 02:43:52;;;;;;;5.73;4.50;;;;;;;17.34;66.64;101293.23;5009180;59;21241;-82
2021/08/13 02:49:00;;;;;;;9.10;5.10;;;;;;;17.34;66.84;101301.25;5008100;59;21160;-81
2021/08/13 02:54:08;;;;;;;7.07;4.67;;;;;;;17.23;66.62;101301.77;5009250;59;21218;-81
2021/08/13 02:59:18;;;;;;;6.67;4.10;;;;;;;17.12;67.03;101303.73;5009263;59;21118;-81
2021/08/13 03:04:24;;;;;;;7.20;4.77;;;;;;;16.98;67.06;101300.16;5009171;59;21184;-80
2021/08/13 03:09:32;;;;;;;8.20;5.40;;;;;;;16.95;67.57;101298.63;5009302;59;21221;-80
2021/08/13 03:14:39;;;;;;;4.37;4.07;;;;;;;16.90;67.40;101300.03;5009319;58;21169;-81
2021/08/13 03:19:46;;;;;;;5.20;4.70;;;;;;;16.94;68.12;101302.78;5009178;59;21113;-81
2021/08/13 03:24:53;;;;;;;7.47;4.83;;;;;;;17.03;68.15;101301.92;5009304;59;21220;-81
2021/08/13 03:29:59;;;;;;;7.93;5.40;;;;;;;17.05;68.26;101293.27;5009167;58;21233;-81
2021/08/13 03:35:07;;;;;;;9.80;5.27;;;;;;;17.04;68.15;101299.59;5007015;59;21219;-82
2021/08/13 03:40:13;;;;;;;6.20;5.00;;;;;;;16.96;67.91;101292.27;5005705;58;21174;-80
2021/08/13 03:45:21;;;;;;;10.70;6.27;;;;;;;16.88;68.02;101284.13;5005703;58;21221;-80
2021/08/13 03:50:27;;;;;;;8.57;5.83;;;;;;;16.85;68.32;101293.76;5005603;59;21638;-81
2021/08/13 03:55:32;;;;;;;11.83;5.53;;;;;;;16.83;68.38;101289.89;5005646;59;21807;-81
2021/08/13 04:00:38;;;;;;;32.03;5.57;;;;;;;16.79;68.68;101284.50;5005767;59;21465;-81
2021/08/13 04:05:45;;;;;;;13.10;5.60;;;;;;;16.83;68.80;101286.38;5005577;59;21174;-80
2021/08/13 04:10:51;;;;;;;10.53;5.57;;;;;;;16.81;68.92;101282.50;5005630;59;21118;-81
2021/08/13 04:15:57;;;;;;;7.80;5.47;;;;;;;16.80;69.21;101274.13;5005618;59;21579;-83
2021/08/13 04:21:04;;;;;;;9.90;5.93;;;;;;;16.82;69.41;101269.50;5005774;58;21276;-81
2021/08/13 04:26:10;;;;;;;18.33;5.67;;;;;;;16.82;69.52;101268.66;5005518;59;22369;-81
2021/08/13 04:31:16;;;;;;;19.00;9.57;;;;;;;16.83;69.58;101261.84;5005530;59;21126;-81
2021/08/13 04:36:21;;;;;;;61.87;36.13;;;;;;;16.83;69.89;101256.98;5009517;59;21169;-82
2021/08/13 04:41:27;;;;;;;91.70;62.90;;;;;;;16.82;70.01;101260.64;5009543;59;21224;-80
2021/08/13 04:46:33;;;;;;;65.23;43.40;;;;;;;16.85;70.38;101265.70;5009524;59;21182;-81
2021/08/13 04:51:39;;;;;;;58.73;31.20;;;;;;;16.87;70.50;101266.41;5009716;58;21218;-82
2021/08/13 04:56:44;;;;;;;39.63;22.17;;;;;;;16.98;70.71;101273.42;5009522;59;21654;-83
2021/08/13 05:01:50;;;;;;;37.60;19.17;;;;;;;17.07;70.63;101269.92;5009561;59;21215;-81
2021/08/13 05:06:56;;;;;;;40.33;16.43;;;;;;;17.16;70.79;101271.72;5008995;59;21222;-82
2021/08/13 05:12:03;;;;;;;54.83;27.37;;;;;;;17.19;70.79;101276.30;5008049;59;21169;-81
2021/08/13 05:17:08;;;;;;;69.73;22.93;;;;;;;17.20;71.06;101270.46;5008251;59;21218;-81
2021/08/13 05:22:15;;;;;;;147.10;61.83;;;;;;;17.31;71.25;101272.96;5009585;59;22303;-81
2021/08/13 05:27:21;;;;;;;66.30;17.57;;;;;;;17.42;71.29;101279.47;5009369;59;21248;-82
2021/08/13 05:32:27;;;;;;;27.93;12.77;;;;;;;17.63;71.72;101283.78;5008175;59;21173;-81
2021/08/13 05:37:33;;;;;;;19.70;11.80;;;;;;;17.87;71.50;101288.19;5005252;59;21181;-81
2021/08/13 05:42:39;;;;;;;9.23;6.17;;;;;;;18.07;71.25;101280.39;5005141;59;21178;-82
2021/08/13 05:47:45;;;;;;;14.03;6.20;;;;;;;18.14;70.52;101288.19;4994525;59;21639;-82
2021/08/13 05:52:51;;;;;;;9.23;5.53;;;;;;;18.27;70.97;101290.50;4992039;59;21118;-83
2021/08/13 05:57:57;;;;;;;10.73;5.57;;;;;;;18.45;70.65;101296.73;4992518;59;21220;-81
2021/08/13 06:03:05;;;;;;;8.53;4.83;;;;;;;18.72;70.66;101288.33;4992572;59;22397;-81
2021/08/13 06:08:12;;;;;;;8.57;4.93;;;;;;;19.06;70.62;101279.08;4992453;59;21186;-84
2021/08/13 06:13:18;;;;;;;12.30;4.72;;;;;;;19.43;69.92;101275.65;4992538;59;21213;-81
2021/08/13 06:18:25;;;;;;;6.62;4.10;;;;;;;19.75;68.83;101274.19;4992604;59;21181;-81
2021/08/13 06:23:31;;;;;;;8.48;5.28;;;;;;;19.98;68.17;101272.63;4992473;59;21181;-81
2021/08/13 06:28:38;;;;;;;8.20;4.83;;;;;;;20.22;68.00;101272.70;4958256;59;21172;-81
2021/08/13 06:33:45;;;;;;;4.95;4.45;;;;;;;20.46;67.90;101279.20;4953976;59;21098;-81
2021/08/13 06:38:51;;;;;;;22.75;4.00;;;;;;;20.66;66.52;101285.94;4996767;59;22207;-83
2021/08/13 06:43:57;;;;;;;10.80;4.10;;;;;;;20.76;65.67;101294.70;4996836;59;21185;-83
2021/08/13 06:49:03;;;;;;;6.60;4.17;;;;;;;21.04;66.08;101297.91;5008808;59;21110;-82
2021/08/13 06:54:09;;;;;;;6.83;3.85;;;;;;;21.33;65.28;101293.38;5009263;59;22193;-84
2021/08/13 06:59:16;;;;;;;9.43;3.45;;;;;;;21.50;63.69;101293.70;5009174;59;21685;-80
2021/08/13 07:04:21;;;;;;;3.83;3.08;;;;;;;21.63;63.64;101294.00;5009371;59;21192;-81
2021/08/13 07:09:28;;;;;;;8.98;3.27;;;;;;;21.85;60.59;101290.22;5009729;59;21218;-82
2021/08/13 07:14:35;;;;;;;3.40;3.10;;;;;;;22.02;61.32;101288.67;5009996;59;21226;-83
2021/08/13 07:19:41;;;;;;;5.35;3.37;;;;;;;22.29;60.90;101292.78;5009894;59;21519;-82
2021/08/13 07:24:47;;;;;;;6.55;3.75;;;;;;;22.49;59.00;101286.41;5009948;59;21536;-82
2021/08/13 07:29:53;;;;;;;6.67;3.92;;;;;;;22.72;58.61;101295.38;5009888;59;21627;-83
2021/08/13 07:34:59;;;;;;;3.35;2.83;;;;;;;22.93;56.78;101289.33;5009867;59;21169;-83
2021/08/13 07:40:08;;;;;;;5.17;3.00;;;;;;;23.13;55.61;101284.28;5009621;58;21221;-81
2021/08/13 07:45:16;;;;;;;5.40;3.00;;;;;;;23.29;54.58;101277.90;5009606;58;21186;-81
2021/08/13 07:50:22;;;;;;;4.42;3.77;;;;;;;23.43;53.67;101275.73;5009788;59;21173;-81
2021/08/13 07:55:28;;;;;;;3.17;2.87;;;;;;;23.67;54.38;101279.57;5009652;59;22218;-80
2021/08/13 08:00:34;;;;;;;5.83;2.92;;;;;;;23.92;53.29;101269.81;5009916;59;21243;-81
2021/08/13 08:05:39;;;;;;;3.17;2.75;;;;;;;24.20;52.98;101264.88;5009940;58;21160;-81
2021/08/13 08:10:46;;;;;;;5.60;2.58;;;;;;;24.30;51.55;101266.45;5009735;59;21158;-80
2021/08/13 08:15:50;;;;;;;6.75;2.67;;;;;;;24.47;52.06;101263.84;5009801;59;21177;-81
2021/08/13 08:20:54;;;;;;;4.47;2.70;;;;;;;24.58;50.80;101251.20;5009674;59;22172;-81
2021/08/13 08:25:59;;;;;;;3.08;2.77;;;;;;;24.81;51.33;101255.88;5009753;59;21540;-81
2021/08/13 08:31:04;;;;;;;3.27;3.08;;;;;;;25.03;48.30;101241.85;5009393;59;21981;-81
2021/08/13 08:36:09;;;;;;;5.85;2.92;;;;;;;25.22;48.68;101240.31;5009485;59;21626;-82
2021/08/13 08:41:14;;;;;;;9.80;3.08;;;;;;;25.43;46.59;101245.67;5009689;59;21179;-83
2021/08/13 08:46:21;;;;;;;2.87;2.40;;;;;;;25.56;46.83;101244.39;5009567;58;21094;-83
2021/08/13 08:51:27;;;;;;;6.17;2.87;;;;;;;25.70;43.91;101238.56;5008460;59;21257;-81
2021/08/13 08:56:32;;;;;;;10.63;4.35;;;;;;;25.78;44.63;101239.77;5009604;59;21105;-82
2021/08/13 09:01:37;;;;;;;7.78;3.27;;;;;;;25.92;44.73;101242.02;5009583;59;21165;-81
2021/08/13 09:06:44;;;;;;;4.58;3.05;;;;;;;26.10;44.80;101238.23;5009669;58;21165;-83
2021/08/13 09:11:49;;;;;;;4.80;2.45;;;;;;;26.26;44.14;101246.02;5009368;59;21188;-81
2021/08/13 09:17:04;;;;;;;6.53;3.17;;;;;;;26.34;42.56;101242.81;5009467;59;21165;-82
2021/08/13 09:22:16;;;;;;;4.05;3.20;;;;;;;26.45;43.54;101238.97;5009592;59;21161;-83
2021/08/13 09:27:31;;;;;;;8.23;3.40;;;;;;;26.67;42.71;101242.36;4929168;60;21652;-82
2021/08/13 09:32:44;;;;;;;3.35;2.40;;;;;;;26.76;43.50;101235.68;4926050;60;21559;-82
2021/08/13 09:37:50;;;;;;;5.67;2.37;;;;;;;26.91;42.18;101232.77;4928888;60;21218;-82
2021/08/13 09:43:03;;;;;;;3.60;2.40;;;;;;;26.99;41.42;101237.19;4929258;60;21198;-81
2021/08/13 09:48:12;;;;;;;7.33;2.65;;;;;;;27.00;40.20;101238.86;4924039;59;21210;-82
2021/08/13 09:53:17;;;;;;;4.42;2.72;;;;;;;27.06;42.12;101239.37;4913113;60;21129;-80
2021/08/13 09:58:29;;;;;;;2.75;2.52;;;;;;;27.20;41.85;101232.36;4967857;59;21183;-81
2021/08/13 10:03:36;;;;;;;8.70;2.67;;;;;;;27.39;41.61;101234.73;4988712;59;21115;-81
2021/08/13 10:08:46;;;;;;;8.20;3.35;;;;;;;27.47;41.42;101226.37;4957512;59;21168;-79
2021/08/13 10:13:52;;;;;;;3.08;2.70;;;;;;;27.58;41.48;101212.16;4988334;59;21712;-79
2021/08/13 10:19:03;;;;;;;5.80;2.77;;;;;;;27.76;41.35;101212.83;4984313;59;21147;-81
2021/08/13 10:24:10;;;;;;;9.18;2.95;;;;;;;27.87;40.09;101209.43;4988298;59;22121;-84
2021/08/13 10:29:17;;;;;;;6.42;2.72;;;;;;;27.87;40.55;101210.80;4988380;59;21221;-82
2021/08/13 10:34:24;;;;;;;2.62;2.33;;;;;;;27.85;39.88;101198.45;4988180;59;21163;-82
2021/08/13 10:39:32;;;;;;;13.68;3.08;;;;;;;27.91;39.37;101201.69;4988469;59;21159;-81
2021/08/13 10:44:45;;;;;;;6.22;2.87;;;;;;;27.94;39.78;101199.37;4989236;59;21155;-82
2021/08/13 10:49:53;;;;;;;7.78;3.50;;;;;;;28.12;40.15;101197.80;5001608;58;21152;-82
2021/08/13 10:54:59;;;;;;;7.92;2.40;;;;;;;28.03;39.98;101199.95;5010098;58;21657;-81
2021/08/13 11:00:05;;;;;;;9.95;2.92;;;;;;;28.21;40.36;101196.54;5009992;59;21197;-81
2021/08/13 11:05:11;;;;;;;5.92;2.85;;;;;;;28.35;37.47;101194.88;5010025;58;21793;-81
2021/08/13 11:10:41;;;;;;;2.92;2.50;;;;;;;28.46;38.48;101191.13;5010065;58;21208;-83
2021/08/13 11:15:49;;;;;;;3.33;2.75;;;;;;;28.66;38.47;101190.47;5009768;58;21293;-81
2021/08/13 11:20:56;;;;;;;6.12;3.33;;;;;;;28.49;38.59;101185.25;5009882;59;21205;-82
2021/08/13 11:26:02;;;;;;;4.75;2.72;;;;;;;28.21;39.72;101179.69;5009816;59;21161;-84
2021/08/13 11:31:09;;;;;;;3.10;2.77;;;;;;;28.17;40.28;101174.34;5009924;59;21235;-83
2021/08/13 11:36:53;;;;;;;6.08;3.02;;;;;;;28.50;39.85;101173.31;5009713;59;21114;-82
2021/08/13 11:42:09;;;;;;;5.55;2.87;;;;;;;28.83;38.48;101170.36;5009823;59;21173;-81
2021/08/13 11:47:20;;;;;;;3.30;3.00;;;;;;;29.09;38.57;101168.73;5009843;59;21266;-83
2021/08/13 11:52:27;;;;;;;3.45;2.70;;;;;;;29.26;38.08;101161.64;5009771;59;21169;-83
2021/08/13 11:57:34;;;;;;;3.33;3.02;;;;;;;29.36;38.63;101151.56;5009996;59;21173;-81
2021/08/13 12:02:39;;;;;;;4.25;3.15;;;;;;;29.45;37.18;101148.05;5009747;59;21110;-83
2021/08/13 12:07:45;;;;;;;4.90;2.60;;;;;;;29.58;37.04;101135.09;5009691;59;21221;-83
2021/08/13 12:12:51;;;;;;;4.22;2.30;;;;;;;29.62;36.12;101134.95;5000871;59;21225;-83
2021/08/13 12:17:58;;;;;;;4.87;2.80;;;;;;;29.56;36.33;101151.38;5009920;59;21169;-81
2021/08/13 12:23:10;;;;;;;2.30;2.10;;;;;;;29.49;36.86;101168.32;5009619;59;21230;-82
2021/08/13 12:28:20;;;;;;;8.80;3.40;;;;;;;29.58;37.72;101154.70;5009198;59;22065;-80
2021/08/13 12:33:27;;;;;;;4.55;2.90;;;;;;;29.78;37.37;101138.10;5003844;59;21074;-80
2021/08/13 12:38:37;;;;;;;4.00;2.87;;;;;;;29.96;35.72;101136.13;5009525;59;21166;-81
2021/08/13 12:43:44;;;;;;;6.60;2.60;;;;;;;30.05;34.42;101134.80;5009334;59;21155;-82
2021/08/13 12:48:50;;;;;;;3.25;2.95;;;;;;;30.14;34.75;101127.09;5009496;59;21153;-82
2021/08/13 12:53:56;;;;;;;9.13;3.17;;;;;;;30.24;35.03;101132.00;5008867;59;22098;-81
2021/08/13 12:59:13;;;;;;;7.08;3.00;;;;;;;30.30;34.64;101132.42;5048287;58;21151;-80
2021/08/13 13:04:40;;;;;;;3.95;2.92;;;;;;;30.29;34.47;101137.58;5032954;58;21157;-81
2021/08/13 13:09:47;;;;;;;4.30;3.00;;;;;;;30.31;33.34;101134.91;5025976;58;21174;-80
2021/08/13 13:14:57;;;;;;;33.13;9.35;;;;;;;30.37;33.45;101128.53;5008893;59;21125;-83
2021/08/13 13:20:16;;;;;;;10.08;4.03;;;;;;;30.34;33.80;101117.24;5022101;58;21106;-83
2021/08/13 13:25:23;;;;;;;10.00;3.45;;;;;;;30.42;34.18;101117.72;4993966;58;21556;-83
2021/08/13 13:30:47;;;;;;;3.87;3.02;;;;;;;30.47;34.28;101123.84;4964369;59;21172;-83
2021/08/13 13:36:01;;;;;;;5.10;2.83;;;;;;;30.61;34.28;101110.30;4845844;61;21178;-84
2021/08/13 13:41:10;;;;;;;3.70;2.72;;;;;;;30.62;32.73;101116.59;4926499;60;21162;-83
2021/08/13 13:46:18;;;;;;;5.50;2.90;;;;;;;30.63;33.27;101111.43;4892953;60;21200;-84
2021/08/13 13:51:25;;;;;;;4.17;3.45;;;;;;;30.73;33.04;101100.73;4888328;60;21184;-83
2021/08/13 13:56:31;;;;;;;10.95;3.50;;;;;;;30.90;33.06;101098.95;4884411;60;21846;-82
2021/08/13 14:01:36;;;;;;;3.62;2.92;;;;;;;30.92;33.26;101087.78;4856786;60;21178;-81
2021/08/13 14:06:42;;;;;;;9.38;3.08;;;;;;;30.99;33.11;101080.30;4890728;60;22291;-81
2021/08/13 14:11:48;;;;;;;5.20;2.77;;;;;;;31.11;32.58;101059.28;4904170;60;21593;-80
2021/08/13 14:16:55;;;;;;;4.17;2.95;;;;;;;31.21;32.71;101051.82;4926350;60;21129;-80
2021/08/13 14:22:01;;;;;;;6.80;3.42;;;;;;;31.27;32.17;101050.33;4925982;60;21173;-80
2021/08/13 14:27:07;;;;;;;6.10;3.37;;;;;;;31.32;32.39;101048.23;4926193;60;22146;-81
2021/08/13 14:32:13;;;;;;;9.03;3.35;;;;;;;31.41;32.28;101038.56;4930248;60;22173;-81
2021/08/13 14:37:19;;;;;;;6.03;3.15;;;;;;;31.43;31.33;101043.26;4930203;60;21291;-79
2021/08/13 14:42:25;;;;;;;6.53;2.77;;;;;;;31.46;31.85;101032.67;4926409;60;21220;-80
2021/08/13 14:47:31;;;;;;;10.05;3.70;;;;;;;31.43;31.94;101037.25;4926257;60;21523;-80
2021/08/13 14:52:37;;;;;;;6.17;3.12;;;;;;;31.28;30.76;101038.32;4926144;59;21172;-81
2021/08/13 14:57:43;;;;;;;3.80;3.05;;;;;;;31.07;31.39;101037.03;4926258;60;21654;-81
2021/08/13 15:02:51;;;;;;;3.60;2.77;;;;;;;31.17;31.60;101037.00;4926216;60;21226;-80
2021/08/13 15:07:57;;;;;;;4.45;2.87;;;;;;;31.16;31.21;101036.17;4926236;60;21216;-81
2021/08/13 15:13:03;;;;;;;11.22;3.60;;;;;;;31.06;31.20;101020.34;4926165;60;21212;-81
2021/08/13 15:18:10;;;;;;;6.72;3.60;;;;;;;30.95;31.75;101019.02;5009307;59;21174;-80
2021/08/13 15:23:15;;;;;;;4.50;3.00;;;;;;;30.96;31.14;101010.58;5006989;59;21261;-79
2021/08/13 15:28:24;;;;;;;8.93;3.22;;;;;;;30.89;31.31;101012.61;4898456;59;21218;-80
2021/08/13 15:33:29;;;;;;;8.58;2.98;;;;;;;30.84;31.12;101008.95;4953999;59;22082;-81
2021/08/13 15:38:35;;;;;;;13.90;3.52;;;;;;;30.85;31.89;100996.42;4954683;59;21118;-80
2021/08/13 15:43:41;;;;;;;4.28;3.10;;;;;;;30.83;32.28;101002.66;5014715;58;21201;-80
2021/08/13 15:48:46;;;;;;;4.33;3.12;;;;;;;30.84;31.45;100994.77;5009816;58;21231;-79
2021/08/13 15:53:52;;;;;;;3.17;2.92;;;;;;;30.83;32.17;100995.83;5009715;59;21170;-79
2021/08/13 15:58:58;;;;;;;11.73;3.37;;;;;;;30.85;31.75;100995.06;5009785;59;21630;-81
2021/08/13 16:04:04;;;;;;;19.00;3.75;;;;;;;30.72;31.50;100996.66;5009664;59;21219;-81
2021/08/13 16:09:10;;;;;;;14.73;3.75;;;;;;;30.56;31.77;100999.59;5009714;59;21224;-80
2021/08/13 16:14:16;;;;;;;52.23;4.62;;;;;;;30.51;32.05;100990.44;5009748;58;21169;-81
2021/08/13 16:19:22;;;;;;;5.08;2.90;;;;;;;30.50;32.37;100989.61;5009641;59;21650;-82
2021/08/13 16:24:28;;;;;;;3.83;3.12;;;;;;;30.53;32.32;100985.05;5009688;58;21102;-80
2021/08/13 16:29:33;;;;;;;3.22;2.92;;;;;;;30.56;32.19;100985.94;5009741;59;21542;-81
2021/08/13 16:34:39;;;;;;;6.65;3.52;;;;;;;30.56;32.16;100983.74;5009733;59;21157;-79
2021/08/13 16:39:45;;;;;;;5.85;3.70;;;;;;;30.62;32.13;100993.72;5009624;59;22151;-79
2021/08/13 16:44:51;;;;;;;12.73;4.10;;;;;;;30.62;31.55;100989.63;5005585;59;21172;-79
2021/08/13 16:49:57;;;;;;;6.75;3.30;;;;;;;30.59;31.83;100977.28;4975879;59;21662;-79
2021/08/13 16:55:03;;;;;;;4.28;2.92;;;;;;;30.56;31.69;100981.02;4981960;58;21205;-79
2021/08/13 17:00:11;;;;;;;8.23;5.28;;;;;;;30.50;31.64;100973.23;4970297;58;21173;-78
2021/08/13 17:05:17;;;;;;;6.70;3.22;;;;;;;30.49;32.28;100962.02;4985885;59;21168;-78
2021/08/13 17:10:23;;;;;;;4.08;3.45;;;;;;;30.51;32.20;100959.88;4992368;59;21217;-81
2021/08/13 17:15:29;;;;;;;4.53;3.52;;;;;;;30.47;32.35;100961.95;4965616;59;21170;-78
2021/08/13 17:20:35;;;;;;;15.98;7.80;;;;;;;30.38;32.75;100963.70;4972404;59;21269;-78
2021/08/13 17:25:41;;;;;;;12.68;5.50;;;;;;;30.35;33.30;100957.88;4978571;59;21172;-78
2021/08/13 17:30:47;;;;;;;21.00;5.35;;;;;;;30.29;33.65;100961.02;4982053;59;21109;-78
2021/08/13 17:35:53;;;;;;;14.40;3.60;;;;;;;30.22;34.25;100954.03;4948568;59;21165;-77
2021/08/13 17:40:59;;;;;;;10.72;3.83;;;;;;;30.19;34.68;100951.77;4932021;59;21121;-77
2021/08/13 17:46:05;;;;;;;7.60;4.72;;;;;;;30.12;34.59;100964.69;4972462;59;21191;-77
2021/08/13 17:51:13;;;;;;;17.42;6.87;;;;;;;30.05;34.64;100964.29;4979313;59;21563;-77
2021/08/13 17:56:19;;;;;;;19.50;7.60;;;;;;;29.94;34.61;100960.17;4985796;59;21106;-77
2021/08/13 18:01:25;;;;;;;22.17;8.18;;;;;;;29.81;34.92;100957.62;4986089;59;21168;-77
2021/08/13 18:06:30;;;;;;;54.90;31.02;;;;;;;29.68;35.21;100969.05;4959764;58;21110;-79
2021/08/13 18:11:36;;;;;;;42.25;22.70;;;;;;;29.57;35.11;100963.05;5009462;59;21176;-79
2021/08/13 18:16:42;;;;;;;41.28;22.20;;;;;;;29.37;35.37;100969.28;4979885;59;21165;-78
2021/08/13 18:21:48;;;;;;;72.80;32.67;;;;;;;29.16;35.61;100968.45;4970324;59;21117;-77
2021/08/13 18:26:54;;;;;;;28.32;10.00;;;;;;;28.97;36.03;100964.92;4985352;59;21168;-77
2021/08/13 18:31:59;;;;;;;39.05;7.25;;;;;;;28.82;37.23;100964.48;4972311;59;21516;-78
2021/08/13 18:37:05;;;;;;;46.65;10.10;;;;;;;28.66;38.64;100959.09;4935093;59;21171;-78
2021/08/13 18:42:13;;;;;;;52.67;9.55;;;;;;;28.47;39.62;100956.88;4930485;60;21282;-78
2021/08/13 18:47:18;;;;;;;33.38;9.53;;;;;;;28.26;40.40;100956.77;4962559;59;21092;-79
2021/08/13 18:52:24;;;;;;;35.00;7.22;;;;;;;28.08;41.00;100963.53;5008821;58;21208;-79
2021/08/13 18:57:30;;;;;;;26.80;7.37;;;;;;;27.85;41.66;100960.58;4987018;59;21190;-80
2021/08/13 19:02:36;;;;;;;26.27;6.92;;;;;;;27.69;42.27;100971.47;4965396;59;21222;-81
2021/08/13 19:07:42;;;;;;;33.05;7.87;;;;;;;27.58;42.83;100974.38;4985228;59;21161;-79
2021/08/13 19:12:47;;;;;;;43.42;9.48;;;;;;;27.41;43.41;100970.48;4971527;59;21106;-79
2021/08/13 19:17:53;;;;;;;22.07;8.60;;;;;;;27.15;43.82;100967.92;4977180;59;22177;-79
2021/08/13 19:22:59;;;;;;;24.25;9.18;;;;;;;26.92;44.21;100974.66;4989220;58;21214;-76
2021/08/13 19:28:05;;;;;;;29.15;8.23;;;;;;;26.86;44.82;100963.84;4968619;59;21234;-77
2021/08/13 19:33:11;;;;;;;59.25;15.25;;;;;;;26.75;44.58;100962.61;4986337;59;21169;-76
2021/08/13 19:38:17;;;;;;;57.17;11.73;;;;;;;26.57;45.15;100948.92;5005469;59;21177;-76
2021/08/13 19:43:23;;;;;;;71.85;10.18;;;;;;;26.36;45.68;100950.52;5004548;59;21732;-79
2021/08/13 19:48:29;;;;;;;72.42;12.37;;;;;;;26.15;46.37;100953.75;5003371;59;21482;-78
2021/08/13 19:53:37;;;;;;;90.30;14.15;;;;;;;26.10;47.01;100956.28;4988790;59;21524;-78
2021/08/13 19:58:42;;;;;;;54.05;10.98;;;;;;;26.11;47.35;100947.10;4966907;59;21231;-78
2021/08/13 20:03:49;;;;;;;68.15;12.47;;;;;;;26.11;47.55;100955.23;4984010;59;21231;-80
2021/08/13 20:08:54;;;;;;;51.37;11.30;;;;;;;26.06;47.66;100950.12;4996997;59;21626;-80
2021/08/13 20:14:00;;;;;;;70.42;12.18;;;;;;;25.94;47.96;100948.56;4997017;59;21273;-80
2021/08/13 20:19:06;;;;;;;57.53;9.05;;;;;;;25.93;48.02;100948.25;4997094;59;21197;-79
2021/08/13 20:24:12;;;;;;;92.65;11.05;;;;;;;25.94;48.07;100948.56;4997072;59;21165;-79
2021/08/13 20:29:18;;;;;;;122.62;16.00;;;;;;;25.88;48.28;100950.75;4995879;59;21176;-79
2021/08/13 20:34:24;;;;;;;84.03;15.32;;;;;;;25.80;48.71;100953.67;4994101;59;21162;-79
2021/08/13 20:39:30;;;;;;;106.35;14.83;;;;;;;25.75;49.03;100953.45;4986726;59;22039;-79
2021/08/13 20:44:35;;;;;;;80.83;10.98;;;;;;;25.74;49.13;100947.72;4990602;59;21195;-79
2021/08/13 20:49:41;;;;;;;49.73;8.83;;;;;;;25.64;49.04;100944.08;4988674;59;21113;-79
2021/08/13 20:54:47;;;;;;;90.42;8.85;;;;;;;25.57;49.03;100937.77;4986493;59;22166;-79
2021/08/13 20:59:53;;;;;;;95.35;15.90;;;;;;;25.42;49.25;100933.06;4986364;59;21152;-79
2021/08/13 21:04:59;;;;;;;72.08;14.78;;;;;;;25.34;49.84;100924.63;4988077;59;21164;-79
2021/08/13 21:10:06;;;;;;;70.30;13.28;;;;;;;25.28;50.15;100925.96;4985217;59;21628;-79
2021/08/13 21:15:12;;;;;;;71.55;11.73;;;;;;;25.09;50.26;100923.52;4986453;59;21521;-79
2021/08/13 21:20:18;;;;;;;46.83;12.15;;;;;;;24.87;50.55;100914.69;4986444;59;21247;-79
2021/08/13 21:25:23;;;;;;;42.15;11.85;;;;;;;24.71;50.94;100907.76;4986363;59;21136;-82
2021/08/13 21:30:29;;;;;;;38.63;9.78;;;;;;;24.70;51.48;100910.66;4974187;59;21628;-79
2021/08/13 21:35:34;;;;;;;47.88;8.28;;;;;;;24.71;51.62;100906.92;4968808;59;21188;-79
2021/08/13 21:40:41;;;;;;;45.73;8.80;;;;;;;24.69;51.59;100900.36;4973047;59;21785;-79
2021/08/13 21:45:47;;;;;;;75.92;8.30;;;;;;;24.70;51.81;100903.89;4970703;59;21165;-79
2021/08/13 21:50:53;;;;;;;14.00;7.22;;;;;;;24.72;51.95;100903.18;4974599;59;21517;-79
2021/08/13 21:55:59;;;;;;;11.55;6.22;;;;;;;24.71;52.05;100907.76;4978928;59;21149;-79
2021/08/13 22:01:05;;;;;;;11.68;7.05;;;;;;;24.70;52.20;100908.79;4987300;58;21188;-79
2021/08/13 22:06:10;;;;;;;44.30;8.68;;;;;;;24.62;52.40;100906.24;4987199;59;21196;-79
2021/08/13 22:11:16;;;;;;;10.75;6.87;;;;;;;24.53;52.80;100905.59;4987390;59;21196;-79
2021/08/13 22:16:22;;;;;;;16.67;8.55;;;;;;;24.48;53.09;100909.92;5009508;59;21450;-79
2021/08/13 22:21:31;;;;;;;23.62;8.05;;;;;;;24.49;53.43;100904.83;5004065;59;21206;-79
2021/08/13 22:26:37;;;;;;;38.35;9.20;;;;;;;24.47;53.45;100902.32;4992114;59;21278;-79
2021/08/13 22:31:43;;;;;;;31.68;9.55;;;;;;;24.40;53.47;100902.82;4955097;59;21217;-79
2021/08/13 22:36:48;;;;;;;23.18;8.83;;;;;;;24.31;53.75;100896.41;5005121;59;21223;-79
2021/08/13 22:41:55;;;;;;;15.88;8.43;;;;;;;24.23;54.31;100897.90;5004974;59;21130;-79
2021/08/13 22:47:01;;;;;;;12.80;7.83;;;;;;;24.19;54.65;100902.34;5004934;59;21200;-79
2021/08/13 22:52:07;;;;;;;17.57;9.35;;;;;;;24.07;54.90;100898.53;5004912;59;21173;-79
2021/08/13 22:57:13;;;;;;;23.67;10.35;;;;;;;24.08;55.55;100893.45;5004532;59;21168;-79
2021/08/13 23:02:19;;;;;;;20.88;11.65;;;;;;;24.10;55.65;100898.66;5005131;59;21524;-79
2021/08/13 23:07:25;;;;;;;24.65;13.38;;;;;;;24.03;54.94;100897.25;5004945;59;21181;-79
2021/08/13 23:12:30;;;;;;;31.12;13.00;;;;;;;23.97;54.82;100895.36;5004999;59;21227;-79
2021/08/13 23:17:36;;;;;;;20.85;10.43;;;;;;;23.88;54.61;100903.27;5004964;59;21162;-79
2021/08/13 23:22:42;;;;;;;15.13;8.15;;;;;;;23.78;54.66;100907.67;5004858;59;21160;-79
2021/08/13 23:27:48;;;;;;;18.35;8.98;;;;;;;23.64;54.70;100899.14;5004815;59;21238;-79
2021/08/13 23:32:54;;;;;;;9.03;6.85;;;;;;;23.56;54.84;100913.28;5006126;59;21173;-79
2021/08/13 23:38:00;;;;;;;11.88;7.30;;;;;;;23.50;54.95;100913.02;5009149;59;21169;-79